Time;durP1;ratioP1;P1;durP2;ratioP2;P2;SDS_P1;SDS_P2;PMS_P1;PMS_P2;Temp;Humidity;BMP_temperature;BMP_pressure;BME280_temperature;BME280_humidity;BME280_pressure;Samples;Min_cycle;Max_cycle;Signal;HPM_P1;HPM_P2
2021/11/23 00:00:27;;;;;;;;;;;;;;;9.27;83.86;101547.16;2073647;28;19917;-64
2021/11/23 00:01:27;;;;;;;;;;;;;;;9.27;83.96;101555.47;2073865;28;19953;-65
2021/11/23 00:02:27;;;;;;;;;;;;;;;9.27;83.97;101559.00;2073779;28;19913;-64
2021/11/23 00:03:28;;;;;;;;;;;;;;;9.25;84.11;101555.06;2073863;28;20358;-64
2021/11/23 00:04:28;;;;;;;;;;;;;;;9.25;84.09;101561.41;2073907;28;20052;-64
2021/11/23 00:05:29;;;;;;;;;;;;;;;9.29;84.18;101562.19;2073920;28;19945;-64
2021/11/23 00:06:33;;;;;;;;;;;;;;;9.33;84.06;101560.16;2073853;28;19913;-64
2021/11/23 00:07:34;;;;;;;;;;;;;;;9.33;84.01;101551.88;2073203;28;19914;-65
2021/11/23 00:08:34;;;;;;;;;;;;;;;9.35;83.97;101557.00;2073333;28;19991;-64
2021/11/23 00:09:35;;;;;;;;;;;;;;;9.37;83.92;101560.19;2073014;28;20004;-64
2021/11/23 00:10:35;;;;;;;;;;;;;;;9.36;83.78;101564.91;2073655;28;19922;-64
2021/11/23 00:11:36;;;;;;;;;;;;;;;9.33;83.94;101556.63;2073764;28;20309;-65
2021/11/23 00:12:36;;;;;;;;;;;;;;;9.33;83.90;101551.09;2073790;28;19956;-65
2021/11/23 00:13:37;;;;;;;;;;;;;;;9.29;84.05;101561.38;2073739;28;19917;-64
2021/11/23 00:14:37;;;;;;;;;;;;;;;9.30;84.16;101560.97;2073770;28;19917;-64
2021/11/23 00:15:38;;;;;;;;;;;;;;;9.32;84.02;101557.81;2073887;28;19914;-64
2021/11/23 00:16:38;;;;;;;;;;;;;;;9.33;83.80;101554.63;2073157;28;19921;-64
2021/11/23 00:17:39;;;;;;;;;;;;;;;9.30;83.72;101562.94;2073272;28;19921;-64
2021/11/23 00:18:39;;;;;;;;;;;;;;;9.28;83.79;101566.13;2073148;28;19913;-65
2021/11/23 00:19:39;;;;;;;;;;;;;;;9.24;84.03;101564.56;2073573;28;19952;-64
2021/11/23 00:20:42;;;;;;;;;;;;;;;9.22;84.08;101562.19;2072725;28;20462;-64
2021/11/23 00:21:42;;;;;;;;;;;;;;;9.28;84.01;101568.88;2073308;28;20040;-64
2021/11/23 00:22:43;;;;;;;;;;;;;;;9.34;83.99;101559.00;2073784;28;19913;-65
2021/11/23 00:23:43;;;;;;;;;;;;;;;9.33;83.94;101562.16;2073893;28;19956;-65
2021/11/23 00:24:44;;;;;;;;;;;;;;;9.37;83.93;101560.19;2073782;28;20009;-64
2021/11/23 00:25:45;;;;;;;;;;;;;;;9.33;83.71;101562.94;2073983;28;20364;-64
2021/11/23 00:26:45;;;;;;;;;;;;;;;9.33;83.59;101562.94;2073675;28;20327;-64
2021/11/23 00:27:45;;;;;;;;;;;;;;;9.35;83.77;101568.06;2073825;28;19958;-65
2021/11/23 00:28:46;;;;;;;;;;;;;;;9.34;83.69;101559.00;2072664;28;19917;-65
2021/11/23 00:29:46;;;;;;;;;;;;;;;9.31;83.76;101567.28;2073599;28;20358;-64
2021/11/23 00:30:46;;;;;;;;;;;;;;;9.25;83.85;101560.59;2073399;28;20018;-64
2021/11/23 00:31:47;;;;;;;;;;;;;;;9.23;84.03;101571.28;2073690;28;19968;-64
2021/11/23 00:32:48;;;;;;;;;;;;;;;9.23;83.95;101566.53;2073401;28;19914;-64
2021/11/23 00:33:49;;;;;;;;;;;;;;;9.24;84.06;101564.56;2073108;28;19925;-64
2021/11/23 00:34:49;;;;;;;;;;;;;;;9.30;84.04;101574.00;2073019;28;19941;-64
2021/11/23 00:35:50;;;;;;;;;;;;;;;9.32;83.99;101577.19;2081921;28;19924;-64
2021/11/23 00:36:51;;;;;;;;;;;;;;;9.33;83.90;101564.94;2081902;28;19913;-64
2021/11/23 00:37:52;;;;;;;;;;;;;;;9.37;83.81;101580.31;2081856;28;19917;-65
2021/11/23 00:38:52;;;;;;;;;;;;;;;9.41;83.75;101578.31;2080765;28;19913;-64
2021/11/23 00:39:53;;;;;;;;;;;;;;;9.45;83.80;101579.09;2081347;28;19913;-65
2021/11/23 00:40:53;;;;;;;;;;;;;;;9.46;83.82;101577.91;2081624;28;20368;-65
2021/11/23 00:41:53;;;;;;;;;;;;;;;9.51;83.73;101585.00;2081706;28;19913;-64
2021/11/23 00:42:54;;;;;;;;;;;;;;;9.52;83.72;101581.84;2081786;28;19972;-64
2021/11/23 00:43:54;;;;;;;;;;;;;;;9.58;83.47;101587.75;2081779;28;19913;-65
2021/11/23 00:44:54;;;;;;;;;;;;;;;9.61;83.19;101578.63;2081818;28;19920;-64
2021/11/23 00:45:55;;;;;;;;;;;;;;;9.64;83.01;101586.13;2081797;28;19948;-65
2021/11/23 00:46:55;;;;;;;;;;;;;;;9.62;83.16;101586.53;2081701;28;19967;-64
2021/11/23 00:47:55;;;;;;;;;;;;;;;9.60;82.86;101586.16;2081702;28;19916;-65
2021/11/23 00:48:56;;;;;;;;;;;;;;;9.52;83.02;101581.03;2080817;28;19990;-64
2021/11/23 00:49:56;;;;;;;;;;;;;;;9.49;83.10;101590.16;2081703;28;20379;-65
2021/11/23 00:50:57;;;;;;;;;;;;;;;9.48;83.33;101586.59;2081881;28;19928;-64
2021/11/23 00:51:58;;;;;;;;;;;;;;;9.44;83.34;101588.56;2081501;28;19913;-64
2021/11/23 00:52:58;;;;;;;;;;;;;;;9.42;83.39;101588.19;2077322;28;19913;-64
2021/11/23 00:53:59;;;;;;;;;;;;;;;9.46;83.33;101591.75;2073480;28;19924;-64
2021/11/23 00:54:59;;;;;;;;;;;;;;;9.47;83.26;101595.28;2073435;28;20358;-64
2021/11/23 00:56:00;;;;;;;;;;;;;;;9.45;83.23;101598.47;2073528;28;19913;-65
2021/11/23 00:57:00;;;;;;;;;;;;;;;9.42;83.30;101596.50;2073493;28;19961;-65
2021/11/23 00:58:01;;;;;;;;;;;;;;;9.45;82.98;101592.13;2073524;28;19913;-64
2021/11/23 00:59:02;;;;;;;;;;;;;;;9.51;82.96;101601.59;2063785;28;19919;-65
2021/11/23 01:00:04;;;;;;;;;;;;;;;9.54;83.18;101598.03;2064730;28;19957;-64
2021/11/23 01:01:05;;;;;;;;;;;;;;;9.57;83.20;101595.25;2072847;28;19917;-65
2021/11/23 01:02:05;;;;;;;;;;;;;;;9.60;83.01;101604.72;2073177;28;19925;-64
2021/11/23 01:03:06;;;;;;;;;;;;;;;9.63;83.00;101606.69;2073311;28;19928;-65
2021/11/23 01:04:06;;;;;;;;;;;;;;;9.64;82.91;101611.81;2073455;28;20004;-64
2021/11/23 01:05:07;;;;;;;;;;;;;;;9.66;82.77;101605.88;2073476;28;20062;-65
2021/11/23 01:06:07;;;;;;;;;;;;;;;9.68;82.64;101609.81;2073523;28;20105;-64
2021/11/23 01:07:08;;;;;;;;;;;;;;;9.73;82.74;101616.94;2073277;28;19914;-64
2021/11/23 01:08:08;;;;;;;;;;;;;;;9.74;82.51;101616.50;2073536;28;20371;-65
2021/11/23 01:09:08;;;;;;;;;;;;;;;9.78;82.39;101613.75;2072288;28;19914;-64
2021/11/23 01:10:09;;;;;;;;;;;;;;;9.79;82.28;101616.09;2073712;28;20063;-64
2021/11/23 01:11:11;;;;;;;;;;;;;;;9.81;82.24;101610.97;2073285;28;19920;-65
2021/11/23 01:12:12;;;;;;;;;;;;;;;9.83;81.93;101605.78;2073323;28;19921;-64
2021/11/23 01:13:12;;;;;;;;;;;;;;;9.85;82.00;101611.72;2073272;28;20016;-64
2021/11/23 01:14:12;;;;;;;;;;;;;;;9.87;81.72;101617.66;2073515;28;19956;-64
2021/11/23 01:15:13;;;;;;;;;;;;;;;9.90;81.56;101607.75;2073185;28;20367;-65
2021/11/23 01:16:15;;;;;;;;;;;;;;;9.93;81.66;101613.25;2073604;28;19967;-64
2021/11/23 01:17:15;;;;;;;;;;;;;;;9.94;81.30;101606.53;2073256;28;19914;-65
2021/11/23 01:18:16;;;;;;;;;;;;;;;9.95;81.51;101613.63;2073369;28;20027;-64
2021/11/23 01:19:17;;;;;;;;;;;;;;;9.96;81.38;101606.13;2072318;28;20012;-64
2021/11/23 01:20:17;;;;;;;;;;;;;;;9.96;81.36;101606.94;2073377;28;19917;-64
2021/11/23 01:21:17;;;;;;;;;;;;;;;9.98;81.28;101609.28;2073209;28;19920;-65
2021/11/23 01:22:18;;;;;;;;;;;;;;;9.99;81.20;101600.56;2073197;28;19913;-65
2021/11/23 01:23:18;;;;;;;;;;;;;;;10.01;81.13;101605.69;2072512;28;20366;-64
2021/11/23 01:24:18;;;;;;;;;;;;;;;10.02;81.10;101607.28;2072773;28;19956;-64
2021/11/23 01:25:19;;;;;;;;;;;;;;;10.01;80.93;101611.25;2072735;28;19952;-64
2021/11/23 01:26:20;;;;;;;;;;;;;;;10.02;81.02;101604.50;2072754;28;19948;-65
2021/11/23 01:27:20;;;;;;;;;;;;;;;10.03;81.04;101606.06;2073145;28;19913;-64
2021/11/23 01:28:21;;;;;;;;;;;;;;;10.02;81.06;101601.72;2073352;28;19917;-65
2021/11/23 01:29:21;;;;;;;;;;;;;;;10.02;81.17;101601.72;2072053;28;19988;-64
2021/11/23 01:30:21;;;;;;;;;;;;;;;10.04;81.01;101602.94;2073158;28;19924;-64
2021/11/23 01:31:22;;;;;;;;;;;;;;;10.06;80.97;101605.31;2073092;28;19913;-64
2021/11/23 01:32:23;;;;;;;;;;;;;;;10.09;80.85;101604.50;2073101;28;19946;-64
2021/11/23 01:33:23;;;;;;;;;;;;;;;10.09;80.71;101601.75;2072314;28;20379;-64
2021/11/23 01:34:23;;;;;;;;;;;;;;;10.10;80.82;101603.31;2072754;28;19941;-64
2021/11/23 01:35:24;;;;;;;;;;;;;;;10.11;80.68;101607.66;2073209;28;19967;-64
2021/11/23 01:36:24;;;;;;;;;;;;;;;10.12;80.42;101609.22;2073221;28;19963;-64
2021/11/23 01:37:25;;;;;;;;;;;;;;;10.12;80.71;101607.25;2073164;28;19914;-64
2021/11/23 01:38:25;;;;;;;;;;;;;;;10.12;80.64;101600.91;2073134;28;19983;-65
2021/11/23 01:39:26;;;;;;;;;;;;;;;10.13;80.72;101608.81;2072199;28;20404;-64
2021/11/23 01:40:26;;;;;;;;;;;;;;;10.15;80.56;101611.19;2073041;28;19921;-64
2021/11/23 01:41:27;;;;;;;;;;;;;;;10.14;80.53;101620.69;2073139;28;19976;-64
2021/11/23 01:42:27;;;;;;;;;;;;;;;10.14;80.47;101609.63;2072952;28;19920;-64
2021/11/23 01:43:28;;;;;;;;;;;;;;;10.14;80.62;101618.69;2073198;28;19918;-64
2021/11/23 01:44:28;;;;;;;;;;;;;;;10.17;80.33;101611.56;2072452;28;19913;-64
2021/11/23 01:45:28;;;;;;;;;;;;;;;10.16;80.28;101618.31;2072530;28;19917;-64
2021/11/23 01:46:29;;;;;;;;;;;;;;;10.16;80.35;101613.56;2073112;28;19913;-64
2021/11/23 01:47:29;;;;;;;;;;;;;;;10.18;80.17;101618.69;2073162;28;19917;-65
2021/11/23 01:48:30;;;;;;;;;;;;;;;10.18;80.26;101613.94;2073136;28;19921;-64
2021/11/23 01:49:30;;;;;;;;;;;;;;;10.20;80.18;101616.31;2072209;28;19924;-65
2021/11/23 01:50:31;;;;;;;;;;;;;;;10.19;80.10;101617.50;2073001;28;19917;-64
2021/11/23 01:51:31;;;;;;;;;;;;;;;10.18;80.24;101618.69;2072515;28;19917;-64
2021/11/23 01:52:32;;;;;;;;;;;;;;;10.15;80.24;101613.97;2072877;28;20173;-64
2021/11/23 01:53:32;;;;;;;;;;;;;;;10.15;80.22;101614.72;2073222;28;20303;-64
2021/11/23 01:54:34;;;;;;;;;;;;;;;10.14;80.13;101615.94;2073130;28;19913;-64
2021/11/23 01:55:36;;;;;;;;;;;;;;;10.14;80.22;101617.94;2073120;28;20399;-64
2021/11/23 01:56:36;;;;;;;;;;;;;;;10.14;80.37;101621.47;2064225;28;19991;-64
2021/11/23 01:57:37;;;;;;;;;;;;;;;10.15;80.27;101620.28;2064243;28;19918;-64
2021/11/23 01:58:38;;;;;;;;;;;;;;;10.15;80.42;101625.81;2072471;28;19924;-65
2021/11/23 01:59:38;;;;;;;;;;;;;;;10.16;80.36;101621.06;2063895;28;19929;-64
2021/11/23 02:00:40;;;;;;;;;;;;;;;10.16;80.38;101618.31;2064230;28;20012;-65
2021/11/23 02:01:40;;;;;;;;;;;;;;;10.16;80.35;101624.66;2073175;28;19920;-64
2021/11/23 02:02:41;;;;;;;;;;;;;;;10.18;80.38;101621.44;2063993;28;20388;-65
2021/11/23 02:03:41;;;;;;;;;;;;;;;10.17;80.35;101609.59;2064140;28;19925;-64
2021/11/23 02:04:42;;;;;;;;;;;;;;;10.19;80.31;101625.81;2073053;28;19918;-64
2021/11/23 02:05:43;;;;;;;;;;;;;;;10.21;80.25;101626.19;2073007;28;20371;-64
2021/11/23 02:06:43;;;;;;;;;;;;;;;10.21;80.17;101623.41;2073034;28;19920;-64
2021/11/23 02:07:44;;;;;;;;;;;;;;;10.21;80.20;101629.75;2072945;28;20008;-64
2021/11/23 02:08:44;;;;;;;;;;;;;;;10.19;80.22;101625.81;2072126;28;19914;-65
2021/11/23 02:09:45;;;;;;;;;;;;;;;10.20;80.28;101625.38;2073095;28;19914;-65
2021/11/23 02:10:45;;;;;;;;;;;;;;;10.19;80.31;101626.59;2073001;28;20087;-64
2021/11/23 02:11:46;;;;;;;;;;;;;;;10.19;80.33;101623.81;2073040;28;19925;-64
2021/11/23 02:12:47;;;;;;;;;;;;;;;10.20;80.45;101624.63;2072752;28;20307;-64
2021/11/23 02:13:47;;;;;;;;;;;;;;;10.17;80.12;101625.41;2073063;28;20284;-64
2021/11/23 02:14:47;;;;;;;;;;;;;;;10.09;80.44;101619.13;2072887;28;19913;-64
2021/11/23 02:15:49;;;;;;;;;;;;;;;10.02;80.58;101621.13;2072974;28;19948;-65
2021/11/23 02:16:50;;;;;;;;;;;;;;;9.97;80.94;101618.78;2072962;28;19920;-64
2021/11/23 02:17:50;;;;;;;;;;;;;;;10.01;81.15;101625.09;2072901;28;19913;-65
2021/11/23 02:18:51;;;;;;;;;;;;;;;10.03;81.14;101631.00;2071904;28;19964;-64
2021/11/23 02:19:52;;;;;;;;;;;;;;;10.04;81.03;101627.88;2072819;28;19913;-64
2021/11/23 02:20:54;;;;;;;;;;;;;;;10.02;80.98;101621.91;2072786;28;19913;-64
2021/11/23 02:21:54;;;;;;;;;;;;;;;10.03;81.14;101622.69;2072885;28;20276;-65
2021/11/23 02:22:55;;;;;;;;;;;;;;;10.04;81.09;101627.88;2072717;28;19976;-65
2021/11/23 02:23:55;;;;;;;;;;;;;;;10.06;80.85;101633.81;2072909;28;19913;-64
2021/11/23 02:24:55;;;;;;;;;;;;;;;10.09;80.89;101632.22;2072932;28;20551;-64
2021/11/23 02:25:56;;;;;;;;;;;;;;;10.09;80.94;101629.44;2073006;28;20487;-65
2021/11/23 02:26:56;;;;;;;;;;;;;;;10.11;80.84;101632.56;2072721;28;19920;-64
2021/11/23 02:27:57;;;;;;;;;;;;;;;10.11;80.94;101633.38;2072904;28;19953;-65
2021/11/23 02:28:57;;;;;;;;;;;;;;;10.13;80.80;101630.19;2071765;28;20538;-64
2021/11/23 02:29:58;;;;;;;;;;;;;;;10.13;80.77;101630.97;2072912;28;19910;-64
2021/11/23 02:30:59;;;;;;;;;;;;;;;10.13;80.63;101636.53;2072866;28;19917;-64
2021/11/23 02:32:00;;;;;;;;;;;;;;;10.12;80.59;101631.38;2072854;28;19914;-64
2021/11/23 02:33:00;;;;;;;;;;;;;;;10.12;80.67;101636.91;2072802;28;19914;-64
2021/11/23 02:34:01;;;;;;;;;;;;;;;10.13;80.55;101635.72;2072665;28;19914;-64
2021/11/23 02:35:01;;;;;;;;;;;;;;;10.08;80.63;101627.84;2072861;28;19948;-64
2021/11/23 02:36:03;;;;;;;;;;;;;;;9.95;81.08;101633.03;2072936;28;20208;-64
2021/11/23 02:37:03;;;;;;;;;;;;;;;9.83;81.60;101635.44;2072820;28;19924;-64
2021/11/23 02:38:04;;;;;;;;;;;;;;;9.77;81.90;101639.84;2072944;28;20405;-64
2021/11/23 02:39:05;;;;;;;;;;;;;;;9.71;82.25;101639.47;2071800;28;20414;-64
2021/11/23 02:40:06;;;;;;;;;;;;;;;9.75;82.39;101640.25;2072826;28;19914;-64
2021/11/23 02:41:09;;;;;;;;;;;;;;;9.71;82.45;101644.22;2072487;28;19948;-64
2021/11/23 02:42:09;;;;;;;;;;;;;;;9.73;82.40;101639.09;2072903;28;20387;-65
2021/11/23 02:43:10;;;;;;;;;;;;;;;9.70;82.62;101639.88;2072479;28;20372;-64
2021/11/23 02:44:10;;;;;;;;;;;;;;;9.63;82.73;101643.47;2064190;28;19921;-64
2021/11/23 02:45:11;;;;;;;;;;;;;;;9.60;83.07;101646.25;2063958;28;19914;-64
2021/11/23 02:46:12;;;;;;;;;;;;;;;9.59;83.03;101648.22;2072957;28;20407;-64
2021/11/23 02:47:12;;;;;;;;;;;;;;;9.59;83.15;101642.66;2072611;28;19917;-65
2021/11/23 02:48:13;;;;;;;;;;;;;;;9.55;83.27;101641.13;2072984;28;19921;-64
2021/11/23 02:49:14;;;;;;;;;;;;;;;9.54;83.50;101639.53;2071728;28;19932;-64
2021/11/23 02:50:15;;;;;;;;;;;;;;;9.58;83.56;101643.09;2072918;28;20375;-64
2021/11/23 02:51:16;;;;;;;;;;;;;;;9.56;83.50;101648.22;2072637;28;19913;-64
2021/11/23 02:52:17;;;;;;;;;;;;;;;9.58;83.40;101646.63;2072927;28;20310;-64
2021/11/23 02:53:17;;;;;;;;;;;;;;;9.61;83.45;101648.63;2072363;28;19936;-64
2021/11/23 02:54:17;;;;;;;;;;;;;;;9.65;83.39;101645.81;2072903;28;19952;-64
2021/11/23 02:55:19;;;;;;;;;;;;;;;9.64;83.39;101647.78;2072697;28;19979;-64
2021/11/23 02:56:19;;;;;;;;;;;;;;;9.66;83.36;101650.97;2072078;28;20379;-64
2021/11/23 02:57:24;;;;;;;;;;;;;;;9.69;83.11;101641.84;2072043;28;19949;-64
2021/11/23 02:58:24;;;;;;;;;;;;;;;9.73;83.13;101655.69;2072936;28;19917;-64
2021/11/23 02:59:24;;;;;;;;;;;;;;;9.77;83.21;101651.72;2071930;28;19963;-65
2021/11/23 03:00:26;;;;;;;;;;;;;;;9.80;82.92;101655.66;2072681;28;20359;-65
2021/11/23 03:01:27;;;;;;;;;;;;;;;9.83;82.93;101654.84;2072668;28;19917;-64
2021/11/23 03:02:27;;;;;;;;;;;;;;;9.85;82.88;101658.00;2073216;28;19925;-65
2021/11/23 03:03:28;;;;;;;;;;;;;;;9.88;82.77;101657.19;2074173;28;19918;-64
2021/11/23 03:04:28;;;;;;;;;;;;;;;9.90;82.66;101658.34;2074473;28;20345;-64
2021/11/23 03:05:29;;;;;;;;;;;;;;;9.93;82.58;101659.53;2074231;28;19968;-64
2021/11/23 03:06:30;;;;;;;;;;;;;;;9.93;82.28;101649.25;2074393;28;19920;-64
2021/11/23 03:07:30;;;;;;;;;;;;;;;9.96;82.27;101650.44;2074263;28;20410;-64
2021/11/23 03:08:32;;;;;;;;;;;;;;;9.97;82.00;101654.78;2074531;28;20171;-64
2021/11/23 03:09:32;;;;;;;;;;;;;;;10.00;82.09;101651.22;2073343;28;19920;-64
2021/11/23 03:10:33;;;;;;;;;;;;;;;10.02;82.02;101651.59;2074410;28;19913;-64
2021/11/23 03:11:33;;;;;;;;;;;;;;;10.03;81.86;101665.03;2074306;28;19984;-65
2021/11/23 03:12:34;;;;;;;;;;;;;;;10.04;81.76;101647.25;2074345;28;20003;-64
2021/11/23 03:13:34;;;;;;;;;;;;;;;10.07;81.71;101648.41;2074183;28;19917;-64
2021/11/23 03:14:34;;;;;;;;;;;;;;;10.08;81.85;101655.53;2074339;28;20018;-64
2021/11/23 03:15:35;;;;;;;;;;;;;;;10.09;81.64;101649.59;2074269;28;20329;-64
2021/11/23 03:16:35;;;;;;;;;;;;;;;10.10;81.60;101655.94;2074274;28;20231;-64
2021/11/23 03:17:36;;;;;;;;;;;;;;;10.11;81.41;101658.31;2074346;28;19917;-64
2021/11/23 03:18:36;;;;;;;;;;;;;;;10.13;81.40;101655.91;2074109;28;19922;-64
2021/11/23 03:19:37;;;;;;;;;;;;;;;10.13;81.23;101653.13;2073752;28;19945;-64
2021/11/23 03:20:38;;;;;;;;;;;;;;;10.14;81.34;101651.16;2074118;28;19921;-65
2021/11/23 03:21:38;;;;;;;;;;;;;;;10.14;81.33;101656.72;2074256;28;20382;-64
2021/11/23 03:22:39;;;;;;;;;;;;;;;10.14;81.30;101654.72;2074241;28;20299;-65
2021/11/23 03:23:39;;;;;;;;;;;;;;;10.15;81.14;101655.50;2074028;28;20078;-64
2021/11/23 03:24:40;;;;;;;;;;;;;;;10.14;81.21;101657.47;2074206;28;19921;-64
2021/11/23 03:25:40;;;;;;;;;;;;;;;10.12;81.30;101656.31;2074262;28;20008;-64
2021/11/23 03:26:41;;;;;;;;;;;;;;;10.11;81.29;101655.53;2074169;28;19933;-64
2021/11/23 03:27:41;;;;;;;;;;;;;;;10.01;81.47;101661.88;2074209;28;19913;-64
2021/11/23 03:28:42;;;;;;;;;;;;;;;9.98;81.68;101656.34;2073404;28;19914;-64
2021/11/23 03:29:43;;;;;;;;;;;;;;;9.98;81.69;101664.66;2073916;28;19922;-64
2021/11/23 03:30:43;;;;;;;;;;;;;;;9.99;81.63;101669.03;2074077;28;19920;-64
2021/11/23 03:31:43;;;;;;;;;;;;;;;9.97;81.95;101666.66;2074191;28;19920;-64
2021/11/23 03:32:44;;;;;;;;;;;;;;;10.00;81.74;101667.81;2074303;28;20327;-64
2021/11/23 03:33:44;;;;;;;;;;;;;;;10.03;81.64;101664.22;2065295;28;19965;-65
2021/11/23 03:34:47;;;;;;;;;;;;;;;10.04;81.70;101660.31;2065422;28;20171;-64
2021/11/23 03:35:47;;;;;;;;;;;;;;;10.05;81.61;101664.66;2065500;28;19946;-64
2021/11/23 03:36:48;;;;;;;;;;;;;;;10.07;81.56;101659.50;2065336;28;19918;-65
2021/11/23 03:37:51;;;;;;;;;;;;;;;10.08;81.50;101661.88;2074154;28;19918;-64
2021/11/23 03:38:51;;;;;;;;;;;;;;;10.09;81.50;101660.66;2064098;28;20396;-64
2021/11/23 03:39:53;;;;;;;;;;;;;;;10.11;81.43;101663.84;2065682;28;19913;-65
2021/11/23 03:40:53;;;;;;;;;;;;;;;10.11;81.36;101663.84;2073886;28;19987;-64
2021/11/23 03:41:54;;;;;;;;;;;;;;;10.13;81.29;101671.72;2074145;28;19913;-64
2021/11/23 03:42:55;;;;;;;;;;;;;;;10.14;81.29;101673.31;2074120;28;19914;-64
2021/11/23 03:43:55;;;;;;;;;;;;;;;10.14;81.39;101670.56;2073992;28;20395;-64
2021/11/23 03:44:58;;;;;;;;;;;;;;;10.15;81.31;101670.13;2073982;28;20311;-64
2021/11/23 03:45:59;;;;;;;;;;;;;;;10.16;81.18;101668.16;2074091;28;20005;-64
2021/11/23 03:46:59;;;;;;;;;;;;;;;10.16;81.34;101676.47;2065340;28;19921;-64
2021/11/23 03:48:00;;;;;;;;;;;;;;;10.15;81.30;101672.13;2065336;28;19914;-64
2021/11/23 03:49:01;;;;;;;;;;;;;;;10.16;81.28;101668.97;2073113;28;20394;-64
2021/11/23 03:50:02;;;;;;;;;;;;;;;10.17;81.23;101669.72;2074055;28;19921;-64
2021/11/23 03:51:03;;;;;;;;;;;;;;;10.18;81.25;101672.09;2074049;28;19936;-64
2021/11/23 03:52:04;;;;;;;;;;;;;;;10.19;81.17;101672.91;2073980;28;20383;-64
2021/11/23 03:53:04;;;;;;;;;;;;;;;10.20;81.28;101677.25;2073979;28;19925;-64
2021/11/23 03:54:05;;;;;;;;;;;;;;;10.19;81.09;101675.69;2073775;28;20391;-64
2021/11/23 03:55:06;;;;;;;;;;;;;;;10.17;81.17;101670.53;2073967;28;19918;-64
2021/11/23 03:56:06;;;;;;;;;;;;;;;10.19;81.06;101673.69;2074052;28;20007;-64
2021/11/23 03:57:07;;;;;;;;;;;;;;;10.20;81.18;101677.25;2073862;28;19921;-64
2021/11/23 03:58:07;;;;;;;;;;;;;;;10.21;81.03;101676.06;2074003;28;19986;-65
2021/11/23 03:59:08;;;;;;;;;;;;;;;10.22;80.92;101677.63;2072944;28;19919;-64
2021/11/23 04:00:09;;;;;;;;;;;;;;;10.22;81.06;101674.84;2073914;28;19944;-64
2021/11/23 04:01:10;;;;;;;;;;;;;;;10.20;80.93;101677.25;2073756;28;19921;-64
2021/11/23 04:02:10;;;;;;;;;;;;;;;10.18;81.00;101677.66;2074007;28;20434;-64
2021/11/23 04:03:10;;;;;;;;;;;;;;;10.17;81.13;101675.28;2073854;28;19952;-64
2021/11/23 04:04:11;;;;;;;;;;;;;;;10.14;81.08;101679.63;2074045;28;19923;-64
2021/11/23 04:05:11;;;;;;;;;;;;;;;10.12;81.16;101672.94;2073770;28;19913;-64
2021/11/23 04:06:12;;;;;;;;;;;;;;;10.12;81.15;101681.22;2073937;28;19914;-64
2021/11/23 04:07:12;;;;;;;;;;;;;;;10.10;81.29;101676.09;2073803;28;19937;-64
2021/11/23 04:08:12;;;;;;;;;;;;;;;10.07;81.34;101681.66;2074019;28;20367;-64
2021/11/23 04:09:13;;;;;;;;;;;;;;;10.08;81.44;101677.69;2063919;28;19918;-64
2021/11/23 04:10:15;;;;;;;;;;;;;;;10.09;81.54;101677.28;2065323;28;19913;-65
2021/11/23 04:11:16;;;;;;;;;;;;;;;10.10;81.48;101673.31;2079530;28;19921;-64
2021/11/23 04:12:16;;;;;;;;;;;;;;;10.12;81.45;101681.22;2082028;28;19978;-64
2021/11/23 04:13:18;;;;;;;;;;;;;;;10.13;81.40;101680.03;2081952;28;19935;-64
2021/11/23 04:14:19;;;;;;;;;;;;;;;10.16;81.34;101679.25;2081288;28;19964;-64
2021/11/23 04:15:19;;;;;;;;;;;;;;;10.15;81.30;101683.97;2081687;28;20292;-64
2021/11/23 04:16:21;;;;;;;;;;;;;;;10.17;81.57;101683.59;2082147;28;19913;-64
2021/11/23 04:17:21;;;;;;;;;;;;;;;10.17;81.38;101670.53;2081886;28;20057;-64
2021/11/23 04:18:21;;;;;;;;;;;;;;;10.17;81.14;101667.75;2082082;28;19979;-64
2021/11/23 04:19:22;;;;;;;;;;;;;;;10.18;81.14;101680.41;2080979;28;19928;-64
2021/11/23 04:20:23;;;;;;;;;;;;;;;10.19;81.10;101673.69;2081912;28;19917;-64
2021/11/23 04:21:24;;;;;;;;;;;;;;;10.20;81.12;101682.78;2081905;28;19913;-64
2021/11/23 04:22:25;;;;;;;;;;;;;;;10.21;81.12;101682.38;2082058;28;20012;-64
2021/11/23 04:23:25;;;;;;;;;;;;;;;10.20;81.06;101678.00;2082001;28;19962;-64
2021/11/23 04:24:26;;;;;;;;;;;;;;;10.22;80.94;101686.72;2082060;28;19956;-64
2021/11/23 04:25:26;;;;;;;;;;;;;;;10.22;80.93;101677.63;2081658;28;19957;-64
2021/11/23 04:26:26;;;;;;;;;;;;;;;10.23;80.76;101688.31;2082049;28;19924;-64
2021/11/23 04:27:28;;;;;;;;;;;;;;;10.24;80.62;101689.88;2081822;28;19971;-64
2021/11/23 04:28:28;;;;;;;;;;;;;;;10.26;80.82;101689.47;2081871;28;19917;-64
2021/11/23 04:29:29;;;;;;;;;;;;;;;10.28;80.74;101684.31;2080633;28;19960;-65
2021/11/23 04:30:29;;;;;;;;;;;;;;;10.27;80.59;101683.53;2082121;28;19948;-64
2021/11/23 04:31:29;;;;;;;;;;;;;;;10.29;80.51;101685.88;2081773;28;19939;-64
2021/11/23 04:32:30;;;;;;;;;;;;;;;10.27;80.56;101688.28;2081972;28;19920;-64
2021/11/23 04:33:30;;;;;;;;;;;;;;;10.28;80.58;101687.06;2081870;28;19921;-64
2021/11/23 04:34:31;;;;;;;;;;;;;;;10.28;80.42;101693.41;2081995;28;20258;-64
2021/11/23 04:35:32;;;;;;;;;;;;;;;10.29;80.67;101689.44;2081592;28;20387;-65
2021/11/23 04:36:32;;;;;;;;;;;;;;;10.30;80.61;101693.03;2081955;28;19920;-64
2021/11/23 04:37:33;;;;;;;;;;;;;;;10.30;80.32;101693.78;2081754;28;19913;-64
2021/11/23 04:38:33;;;;;;;;;;;;;;;10.30;80.42;101695.78;2081950;28;19913;-64
2021/11/23 04:39:34;;;;;;;;;;;;;;;10.31;80.51;101697.38;2080884;28;20307;-64
2021/11/23 04:40:34;;;;;;;;;;;;;;;10.31;80.51;101698.13;2081602;28;19940;-64
2021/11/23 04:41:34;;;;;;;;;;;;;;;10.32;80.25;101690.63;2081714;28;19970;-64
2021/11/23 04:42:35;;;;;;;;;;;;;;;10.32;80.44;101693.38;2081827;28;20383;-64
2021/11/23 04:43:36;;;;;;;;;;;;;;;10.33;80.38;101692.19;2081746;28;19913;-64
2021/11/23 04:44:36;;;;;;;;;;;;;;;10.33;80.43;101695.75;2081913;28;19921;-64
2021/11/23 04:45:37;;;;;;;;;;;;;;;10.34;80.17;101691.00;2081530;28;19920;-64
2021/11/23 04:46:38;;;;;;;;;;;;;;;10.34;80.12;101696.53;2081942;28;19924;-64
2021/11/23 04:47:38;;;;;;;;;;;;;;;10.34;80.23;101700.09;2081755;28;19919;-64
2021/11/23 04:48:39;;;;;;;;;;;;;;;10.33;80.21;101701.31;2081176;28;19978;-64
2021/11/23 04:49:39;;;;;;;;;;;;;;;10.33;80.13;101706.84;2081445;28;19913;-64
2021/11/23 04:50:40;;;;;;;;;;;;;;;10.33;80.19;101700.50;2081782;28;19913;-64
2021/11/23 04:51:40;;;;;;;;;;;;;;;10.33;80.12;101698.53;2081759;28;19951;-64
2021/11/23 04:52:41;;;;;;;;;;;;;;;10.34;80.24;101696.53;2079610;28;19914;-64
2021/11/23 04:53:41;;;;;;;;;;;;;;;10.35;80.02;101712.75;2073588;28;19914;-64
2021/11/23 04:54:42;;;;;;;;;;;;;;;10.39;80.13;101704.44;2073659;28;19914;-64
2021/11/23 04:55:42;;;;;;;;;;;;;;;10.37;79.93;101704.06;2073374;28;19963;-64
2021/11/23 04:56:42;;;;;;;;;;;;;;;10.35;80.12;101698.91;2073478;28;20383;-64
2021/11/23 04:57:43;;;;;;;;;;;;;;;10.35;80.00;101706.44;2073510;28;19967;-64
2021/11/23 04:58:44;;;;;;;;;;;;;;;10.36;80.13;101708.03;2072515;28;20531;-64
2021/11/23 04:59:45;;;;;;;;;;;;;;;10.37;80.07;101713.16;2073599;28;19914;-64
2021/11/23 05:00:45;;;;;;;;;;;;;;;10.37;80.09;101709.59;2073181;28;19948;-64
2021/11/23 05:01:45;;;;;;;;;;;;;;;10.39;79.89;101721.06;2073501;28;19917;-64
2021/11/23 05:02:46;;;;;;;;;;;;;;;10.39;79.81;101712.75;2073431;28;19971;-65
2021/11/23 05:03:46;;;;;;;;;;;;;;;10.40;79.87;101712.34;2073475;28;19917;-65
2021/11/23 05:04:46;;;;;;;;;;;;;;;10.40;79.74;101719.88;2073421;28;19920;-64
2021/11/23 05:05:47;;;;;;;;;;;;;;;10.38;79.85;101716.72;2073358;28;19913;-64
2021/11/23 05:06:47;;;;;;;;;;;;;;;10.38;79.78;101713.94;2073358;28;19917;-64
2021/11/23 05:07:47;;;;;;;;;;;;;;;10.36;79.93;101710.78;2073495;28;20306;-65
2021/11/23 05:08:48;;;;;;;;;;;;;;;10.36;79.97;101710.78;2072360;28;19940;-64
2021/11/23 05:09:48;;;;;;;;;;;;;;;10.34;79.86;101713.97;2073518;28;20445;-64
2021/11/23 05:10:48;;;;;;;;;;;;;;;10.33;79.85;101709.63;2073279;28;19913;-64
2021/11/23 05:11:49;;;;;;;;;;;;;;;10.33;79.97;101717.13;2073418;28;19914;-64
2021/11/23 05:12:49;;;;;;;;;;;;;;;10.33;79.97;101717.13;2073534;28;19920;-64